createdAt,value
2018-01-05T00:01:01.983Z,79.45
2018-01-05T00:02:06.293Z,79.57
2018-01-05T00:03:10.504Z,79.76
2018-01-05T00:04:14.724Z,79.36
2018-01-05T00:05:19.084Z,79.55
2018-01-05T00:06:23.314Z,79.93
2018-01-05T00:07:27.614Z,79.67
2018-01-05T00:08:31.840Z,80.15
2018-01-05T00:09:36.148Z,80.08
2018-01-05T00:10:41.408Z,80.26
2018-01-05T00:11:46.677Z,80.43
2018-01-05T00:12:50.897Z,80.45
2018-01-05T00:13:55.356Z,80.97
2018-01-05T00:14:59.619Z,80.87
2018-01-05T00:16:04.338Z,81.06
2018-01-05T00:17:08.742Z,81.44
2018-01-05T00:18:12.956Z,81.59
2018-01-05T00:19:17.381Z,81.98
2018-01-05T00:20:21.877Z,82.30
2018-01-05T00:21:26.080Z,82.11
2018-01-05T00:22:30.591Z,82.43
2018-01-05T00:23:34.901Z,82.93
2018-01-05T00:24:39.504Z,82.46
2018-01-05T00:25:43.799Z,82.46
2018-01-05T00:26:48.270Z,82.48
2018-01-05T00:27:52.600Z,81.86
2018-01-05T00:28:56.787Z,82.04
2018-01-05T00:30:01.028Z,81.49
2018-01-05T00:31:05.580Z,81.57
2018-01-05T00:32:09.847Z,82.27
2018-01-05T00:33:14.202Z,82.40
2018-01-05T00:34:18.360Z,82.83
2018-01-05T00:35:22.639Z,82.84
2018-01-05T00:36:26.823Z,82.58
2018-01-05T00:37:31.066Z,83.00
2018-01-05T00:38:35.215Z,82.92
2018-01-05T00:39:41.031Z,83.06
2018-01-05T00:40:45.543Z,82.86
2018-01-05T00:41:49.749Z,83.34
2018-01-05T00:42:54.033Z,83.31
2018-01-05T00:43:58.199Z,83.43
2018-01-05T00:45:04.385Z,83.65
2018-01-05T00:46:08.920Z,83.38
2018-01-05T00:47:13.834Z,82.75
2018-01-05T00:48:18.011Z,82.56
2018-01-05T00:49:22.419Z,82.46
2018-01-05T00:50:26.861Z,82.46
2018-01-05T00:51:32.172Z,83.04
2018-01-05T00:52:37.014Z,82.56
2018-01-05T00:53:42.208Z,82.37
2018-01-05T00:54:46.437Z,82.78
2018-01-05T00:55:50.651Z,83.04
2018-01-05T00:56:55.415Z,82.37
2018-01-05T00:57:59.921Z,82.51
2018-01-05T00:59:04.169Z,83.08
2018-01-05T01:00:09.272Z,82.96
2018-01-05T01:01:13.533Z,83.02
2018-01-05T01:02:17.735Z,83.22
2018-01-05T01:03:21.892Z,83.46
2018-01-05T01:04:26.026Z,83.13
2018-01-05T01:05:30.572Z,82.21
2018-01-05T01:06:35.744Z,81.94
2018-01-05T01:07:39.845Z,81.97
2018-01-05T01:08:44.407Z,82.07
2018-01-05T01:09:48.956Z,81.85
2018-01-05T01:10:53.157Z,82.16
2018-01-05T01:11:57.329Z,82.53
2018-01-05T01:13:01.551Z,82.06
2018-01-05T01:14:05.682Z,82.71
2018-01-05T01:15:10.608Z,82.40
2018-01-05T01:16:15.870Z,82.33
2018-01-05T01:17:20.038Z,82.39
2018-01-05T01:18:24.187Z,82.32
2018-01-05T01:19:28.449Z,82.08
2018-01-05T01:20:33.250Z,82.33
2018-01-05T01:21:37.483Z,81.87
2018-01-05T01:22:43.007Z,81.64
2018-01-05T01:23:47.114Z,81.86
2018-01-05T01:24:51.204Z,81.84
2018-01-05T01:25:55.456Z,81.16
2018-01-05T01:26:59.584Z,81.52
2018-01-05T01:28:04.015Z,81.39
2018-01-05T01:29:08.591Z,82.08
2018-01-05T01:30:16.360Z,81.89
2018-01-05T01:31:20.676Z,81.67
2018-01-05T01:32:25.016Z,81.69
2018-01-05T01:33:29.185Z,81.17
2018-01-05T01:34:33.714Z,81.17
2018-01-05T01:35:37.973Z,81.33
2018-01-05T01:36:42.934Z,80.48
2018-01-05T01:37:47.241Z,80.65
2018-01-05T01:38:52.002Z,80.55
2018-01-05T01:39:56.161Z,79.94
2018-01-05T01:41:01.188Z,80.44
2018-01-05T01:42:05.310Z,80.31
2018-01-05T01:43:09.520Z,80.00
2018-01-05T01:44:14.605Z,80.09
2018-01-05T01:45:19.439Z,80.22
2018-01-05T01:46:23.834Z,79.87
2018-01-05T01:47:28.310Z,79.46
2018-01-05T01:48:32.462Z,78.97
2018-01-05T01:49:36.667Z,79.08
2018-01-05T01:50:42.208Z,79.52
2018-01-05T01:51:46.367Z,79.61
2018-01-05T01:52:50.506Z,79.86
2018-01-05T01:53:54.755Z,80.23
2018-01-05T01:54:58.919Z,80.53
2018-01-05T01:56:03.619Z,80.52
2018-01-05T01:57:08.099Z,80.62
2018-01-05T01:58:13.285Z,80.24
2018-01-05T01:59:17.493Z,79.85
2018-01-05T02:00:22.627Z,80.00
2018-01-05T02:01:26.915Z,79.20
2018-01-05T02:02:31.932Z,79.87
2018-01-05T02:03:36.072Z,79.87
2018-01-05T02:04:40.178Z,79.83
2018-01-05T02:05:44.389Z,79.79
2018-01-05T02:06:49.373Z,79.85
2018-01-05T02:07:53.810Z,80.34
2018-01-05T02:08:57.989Z,80.74
2018-01-05T02:10:02.298Z,80.49
2018-01-05T02:11:06.451Z,80.71
2018-01-05T02:12:10.623Z,80.91
2018-01-05T02:13:20.626Z,81.00
2018-01-05T02:14:24.773Z,81.41
2018-01-05T02:15:29.521Z,81.26
2018-01-05T02:16:33.668Z,81.66
2018-01-05T02:17:38.870Z,81.31
2018-01-05T02:18:43.323Z,81.52
2018-01-05T02:19:47.417Z,81.42
2018-01-05T02:20:51.533Z,80.88
2018-01-05T02:21:55.664Z,81.36
2018-01-05T02:23:00.196Z,81.77
2018-01-05T02:24:04.471Z,81.28
2018-01-05T02:25:09.258Z,80.82
2018-01-05T02:26:13.403Z,81.19
2018-01-05T02:27:17.777Z,81.21
2018-01-05T02:28:22.064Z,81.16
2018-01-05T02:29:26.136Z,80.68
2018-01-05T02:30:30.774Z,80.70
2018-01-05T02:31:36.018Z,80.30
2018-01-05T02:32:41.215Z,80.07
2018-01-05T02:33:45.577Z,79.68
2018-01-05T02:34:50.699Z,79.71
2018-01-05T02:35:54.936Z,80.20
2018-01-05T02:36:58.997Z,80.01
2018-01-05T02:38:03.710Z,79.47
2018-01-05T02:39:07.943Z,79.27
2018-01-05T02:40:17.210Z,79.67
2018-01-05T02:41:21.407Z,79.48
2018-01-05T02:42:25.525Z,80.00
2018-01-05T02:43:29.640Z,80.19
2018-01-05T02:44:34.193Z,79.11
2018-01-05T02:45:39.156Z,79.25
2018-01-05T02:46:43.375Z,78.89
2018-01-05T02:47:47.481Z,79.29
2018-01-05T02:48:52.121Z,78.95
2018-01-05T02:49:56.217Z,79.22
2018-01-05T02:51:00.329Z,79.01
2018-01-05T02:52:04.486Z,78.82
2018-01-05T02:53:08.681Z,78.79
2018-01-05T02:54:13.112Z,78.64
2018-01-05T02:55:21.042Z,78.42
2018-01-05T02:56:25.163Z,77.77
2018-01-05T02:57:29.407Z,77.68
2018-01-05T02:58:40.216Z,78.07
2018-01-05T02:59:44.329Z,78.66
2018-01-05T03:00:51.358Z,78.15
2018-01-05T03:01:56.022Z,78.56
2018-01-05T03:03:00.185Z,78.74
2018-01-05T03:04:04.372Z,78.40
2018-01-05T03:05:08.497Z,78.54
2018-01-05T03:06:13.258Z,78.44
2018-01-05T03:07:17.692Z,78.22
2018-01-05T03:08:21.812Z,78.01
2018-01-05T03:09:26.282Z,78.42
2018-01-05T03:10:30.522Z,78.06
2018-01-05T03:11:34.706Z,78.18
2018-01-05T03:12:38.894Z,78.04
2018-01-05T03:13:43.275Z,78.35
2018-01-05T03:14:48.640Z,78.44
2018-01-05T03:15:53.097Z,78.47
2018-01-05T03:16:57.214Z,78.54
2018-01-05T03:18:01.404Z,78.43
2018-01-05T03:19:05.515Z,77.81
2018-01-05T03:20:09.729Z,78.13
2018-01-05T03:21:13.905Z,78.10
2018-01-05T03:22:18.010Z,78.26
2018-01-05T03:23:22.193Z,78.09
2018-01-05T03:24:29.982Z,78.35
2018-01-05T03:25:34.073Z,78.36
2018-01-05T03:26:38.167Z,78.36
2018-01-05T03:27:42.764Z,79.21
2018-01-05T03:28:47.440Z,79.03
2018-01-05T03:29:52.480Z,79.45
2018-01-05T03:30:57.170Z,79.76
2018-01-05T03:32:01.298Z,79.57
2018-01-05T03:33:05.741Z,79.92
2018-01-05T03:34:09.852Z,80.22
2018-01-05T03:35:13.993Z,80.60
2018-01-05T03:36:18.161Z,80.55
2018-01-05T03:37:22.533Z,80.21
2018-01-05T03:38:26.673Z,80.26
2018-01-05T03:39:31.573Z,80.43
2018-01-05T03:40:36.000Z,80.53
2018-01-05T03:41:40.524Z,80.23
2018-01-05T03:42:44.726Z,80.24
2018-01-05T03:43:49.450Z,79.87
2018-01-05T03:44:53.680Z,79.74
2018-01-05T03:45:58.188Z,80.09
2018-01-05T03:47:02.292Z,79.97
2018-01-05T03:48:12.766Z,79.26
2018-01-05T03:49:17.144Z,79.46
2018-01-05T03:50:21.422Z,79.29
2018-01-05T03:51:25.581Z,79.55
2018-01-05T03:52:29.726Z,79.31
2018-01-05T03:53:33.928Z,78.87
2018-01-05T03:54:37.980Z,78.96
2018-01-05T03:55:42.125Z,78.40
2018-01-05T03:56:47.769Z,78.33
2018-01-05T03:57:51.869Z,78.37
2018-01-05T03:58:56.095Z,78.54
2018-01-05T04:00:00.237Z,78.18
2018-01-05T04:01:04.961Z,78.32
2018-01-05T04:02:09.071Z,78.38
2018-01-05T04:03:13.479Z,78.12
2018-01-05T04:04:17.644Z,78.54
2018-01-05T04:05:21.835Z,78.24
2018-01-05T04:06:25.988Z,78.05
2018-01-05T04:07:30.048Z,77.78
2018-01-05T04:08:34.221Z,77.44
2018-01-05T04:09:39.081Z,77.59
2018-01-05T04:10:43.288Z,77.61
2018-01-05T04:11:47.576Z,76.92
2018-01-05T04:12:51.675Z,76.93
2018-01-05T04:13:55.745Z,76.70
2018-01-05T04:15:00.220Z,77.29
2018-01-05T04:16:15.448Z,77.24
2018-01-05T04:17:19.595Z,76.46
2018-01-05T04:18:23.695Z,76.75
2018-01-05T04:19:27.845Z,76.53
2018-01-05T04:20:32.110Z,76.98
2018-01-05T04:21:37.753Z,76.27
2018-01-05T04:22:42.224Z,77.21
2018-01-05T04:23:46.902Z,77.05
2018-01-05T04:24:51.337Z,77.22
2018-01-05T04:25:55.680Z,76.75
2018-01-05T04:27:00.040Z,76.78
2018-01-05T04:28:05.000Z,76.46
2018-01-05T04:29:15.354Z,76.58
2018-01-05T04:30:19.891Z,76.09
2018-01-05T04:31:24.017Z,76.71
2018-01-05T04:32:28.453Z,75.85
2018-01-05T04:33:32.585Z,75.75
2018-01-05T04:34:39.109Z,75.42
2018-01-05T04:35:43.389Z,75.81
2018-01-05T04:36:48.123Z,76.17
2018-01-05T04:37:53.132Z,75.79
2018-01-05T04:38:57.314Z,76.01
2018-01-05T04:40:01.507Z,75.49
2018-01-05T04:41:06.459Z,76.90
2018-01-05T04:42:10.593Z,76.06
2018-01-05T04:43:14.718Z,75.97
2018-01-05T04:44:19.206Z,76.40
2018-01-05T04:45:23.617Z,75.90
2018-01-05T04:46:28.539Z,75.52
2018-01-05T04:47:33.276Z,75.82
2018-01-05T04:48:37.355Z,75.70
2018-01-05T04:49:41.461Z,75.94
2018-01-05T04:50:45.740Z,76.11
2018-01-05T04:51:51.494Z,75.22
2018-01-05T04:52:55.712Z,75.57
2018-01-05T04:54:00.284Z,76.19
2018-01-05T04:55:04.432Z,75.80
2018-01-05T04:56:12.846Z,76.07
2018-01-05T04:57:17.018Z,75.68
2018-01-05T04:58:21.113Z,75.63
2018-01-05T04:59:25.312Z,75.95
2018-01-05T05:00:29.774Z,76.09
2018-01-05T05:01:36.874Z,75.86
2018-01-05T05:02:41.825Z,76.01
2018-01-05T05:03:46.957Z,75.58
2018-01-05T05:04:51.112Z,75.32
2018-01-05T05:05:55.568Z,75.27
2018-01-05T05:06:59.983Z,74.80
2018-01-05T05:08:04.137Z,75.00
2018-01-05T05:09:08.369Z,75.44
2018-01-05T05:10:12.520Z,75.07
2018-01-05T05:11:16.693Z,75.50
2018-01-05T05:12:21.310Z,75.68
2018-01-05T05:13:25.771Z,75.36
2018-01-05T05:14:30.218Z,75.45
2018-01-05T05:15:34.602Z,75.72
2018-01-05T05:16:38.764Z,76.14
2018-01-05T05:17:42.859Z,75.73
2018-01-05T05:18:47.657Z,75.40
2018-01-05T05:19:52.102Z,75.72
2018-01-05T05:20:56.295Z,75.51
2018-01-05T05:22:00.511Z,75.91
2018-01-05T05:23:04.615Z,75.65
2018-01-05T05:24:08.900Z,75.60
2018-01-05T05:25:13.738Z,75.84
2018-01-05T05:26:17.921Z,76.18
2018-01-05T05:27:22.157Z,75.87
2018-01-05T05:28:26.507Z,76.17
2018-01-05T05:29:31.027Z,76.49
2018-01-05T05:30:35.762Z,76.49
2018-01-05T05:31:41.485Z,76.67
2018-01-05T05:32:47.941Z,76.50
2018-01-05T05:33:52.145Z,76.66
2018-01-05T05:34:56.370Z,76.16
2018-01-05T05:36:00.534Z,76.36
2018-01-05T05:37:04.708Z,76.61
2018-01-05T05:38:09.185Z,76.86
2018-01-05T05:39:17.487Z,76.98
2018-01-05T05:40:21.660Z,76.75
2018-01-05T05:41:30.864Z,77.01
2018-01-05T05:42:35.080Z,77.78
2018-01-05T05:43:40.194Z,77.81
2018-01-05T05:44:45.254Z,77.49
2018-01-05T05:45:50.658Z,77.69
2018-01-05T05:46:55.364Z,77.91
2018-01-05T05:47:59.833Z,77.80
2018-01-05T05:50:07.874Z,77.72
2018-01-05T05:51:13.002Z,77.52
2018-01-05T05:52:17.104Z,77.60
2018-01-05T05:53:21.455Z,77.46
2018-01-05T05:54:25.613Z,77.01
2018-01-05T05:55:29.748Z,77.37
2018-01-05T05:56:33.916Z,77.45
2018-01-05T05:57:39.651Z,78.05
2018-01-05T05:58:43.871Z,77.51
2018-01-05T05:59:48.838Z,77.72
2018-01-05T06:00:53.712Z,77.35
2018-01-05T06:01:57.897Z,77.90
2018-01-05T06:03:02.064Z,76.87
2018-01-05T06:04:06.491Z,76.97
2018-01-05T06:05:10.579Z,77.09
2018-01-05T06:06:14.698Z,77.09
2018-01-05T06:07:18.936Z,76.54
2018-01-05T06:08:23.438Z,76.90
2018-01-05T06:09:27.864Z,76.93
2018-01-05T06:10:32.052Z,77.13
2018-01-05T06:11:36.195Z,77.18
2018-01-05T06:12:40.980Z,77.52
2018-01-05T06:13:45.119Z,77.44
2018-01-05T06:14:49.280Z,77.27
2018-01-05T06:15:53.917Z,77.25
2018-01-05T06:16:58.630Z,77.07
2018-01-05T06:18:02.770Z,77.34
2018-01-05T06:19:06.924Z,77.14
2018-01-05T06:20:11.091Z,77.12
2018-01-05T06:21:15.253Z,77.87
2018-01-05T06:22:21.639Z,77.56
2018-01-05T06:23:25.912Z,77.89
2018-01-05T06:24:33.333Z,77.99
2018-01-05T06:25:37.478Z,78.12
2018-01-05T06:26:41.712Z,78.37
2018-01-05T06:27:45.837Z,78.27
2018-01-05T06:28:50.304Z,78.79
2018-01-05T06:29:54.476Z,78.57
2018-01-05T06:30:58.828Z,78.78
2018-01-05T06:32:03.162Z,78.74
2018-01-05T06:33:07.296Z,78.86
2018-01-05T06:34:11.433Z,79.06
2018-01-05T06:35:15.641Z,79.15
2018-01-05T06:36:19.753Z,79.43
2018-01-05T06:37:23.940Z,79.61
2018-01-05T06:38:28.106Z,80.00
2018-01-05T06:39:32.259Z,79.74
2018-01-05T06:40:38.793Z,79.85
2018-01-05T06:41:42.928Z,79.85
2018-01-05T06:42:47.025Z,80.00
2018-01-05T06:43:51.136Z,80.20
2018-01-05T06:44:55.265Z,79.92
2018-01-05T06:46:00.042Z,79.91
2018-01-05T06:47:04.150Z,79.93
2018-01-05T06:48:21.756Z,79.95
2018-01-05T06:49:25.913Z,79.88
2018-01-05T06:50:30.030Z,79.93
2018-01-05T06:51:34.137Z,80.45
2018-01-05T06:52:38.864Z,80.10
2018-01-05T06:53:44.001Z,80.08
2018-01-05T06:54:48.120Z,80.27
2018-01-05T06:55:52.216Z,80.15
2018-01-05T06:56:56.763Z,79.99
2018-01-05T06:58:00.878Z,79.95
2018-01-05T06:59:05.316Z,80.32
2018-01-05T07:00:09.534Z,80.22
2018-01-05T07:01:13.876Z,80.18
2018-01-05T07:02:18.125Z,80.48
2018-01-05T07:03:22.265Z,80.45
2018-01-05T07:04:26.365Z,80.56
2018-01-05T07:05:30.585Z,80.36
2018-01-05T07:06:34.883Z,80.39
2018-01-05T07:07:39.401Z,80.56
2018-01-05T07:08:43.853Z,80.78
2018-01-05T07:09:47.971Z,80.74
2018-01-05T07:10:52.961Z,80.64
2018-01-05T07:11:57.191Z,80.65
2018-01-05T07:13:01.460Z,80.29
2018-01-05T07:14:05.547Z,80.32
2018-01-05T07:15:09.762Z,80.46
2018-01-05T07:16:13.936Z,80.69
2018-01-05T07:17:18.442Z,80.60
2018-01-05T07:18:22.578Z,80.07
2018-01-05T07:19:26.763Z,79.81
2018-01-05T07:20:30.924Z,80.00
2018-01-05T07:21:35.067Z,80.57
2018-01-05T07:22:39.592Z,80.16
2018-01-05T07:23:44.044Z,79.95
2018-01-05T07:24:48.556Z,79.99
2018-01-05T07:25:53.562Z,80.03
2018-01-05T07:26:57.700Z,79.40
2018-01-05T07:28:01.873Z,79.77
2018-01-05T07:29:06.027Z,79.50
2018-01-05T07:30:10.479Z,79.77
2018-01-05T07:31:14.621Z,79.77
2018-01-05T07:32:19.781Z,79.30
2018-01-05T07:33:23.962Z,79.55
2018-01-05T07:34:28.057Z,79.53
2018-01-05T07:35:32.222Z,79.27
2018-01-05T07:36:36.671Z,79.23
2018-01-05T07:37:41.798Z,79.08
2018-01-05T07:38:45.997Z,79.22
2018-01-05T07:39:50.640Z,78.92
2018-01-05T07:40:54.766Z,78.74
2018-01-05T07:41:59.294Z,79.01
2018-01-05T07:43:04.007Z,78.73
2018-01-05T07:44:09.033Z,78.94
2018-01-05T07:45:14.934Z,79.05
2018-01-05T07:46:19.175Z,78.80
2018-01-05T07:47:23.394Z,78.84
2018-01-05T07:48:27.569Z,79.10
2018-01-05T07:49:32.180Z,78.89
2018-01-05T07:50:36.325Z,79.08
2018-01-05T07:51:41.417Z,78.75
2018-01-05T07:52:45.610Z,78.65
2018-01-05T07:53:49.812Z,78.51
2018-01-05T07:54:54.992Z,78.80
2018-01-05T07:55:59.983Z,78.58
2018-01-05T07:57:04.460Z,78.60
2018-01-05T07:58:08.968Z,78.22
2018-01-05T07:59:13.220Z,78.15
2018-01-05T08:00:17.563Z,78.39
2018-01-05T08:01:21.673Z,78.38
2018-01-05T08:02:25.896Z,78.29
2018-01-05T08:03:30.186Z,78.48
2018-01-05T08:04:34.546Z,77.75
2018-01-05T08:05:39.506Z,77.82
2018-01-05T08:06:44.296Z,77.01
2018-01-05T08:07:48.651Z,77.47
2018-01-05T08:08:53.770Z,77.35
2018-01-05T08:09:58.009Z,77.48
2018-01-05T08:11:02.120Z,77.26
2018-01-05T08:12:06.279Z,76.93
2018-01-05T08:13:10.725Z,77.22
2018-01-05T08:14:15.935Z,77.22
2018-01-05T08:15:20.468Z,76.86
2018-01-05T08:16:24.597Z,76.97
2018-01-05T08:17:28.683Z,77.06
2018-01-05T08:18:32.841Z,77.15
2018-01-05T08:19:37.308Z,76.87
2018-01-05T08:20:41.511Z,76.89
2018-01-05T08:21:45.613Z,77.30
2018-01-05T08:22:49.756Z,76.82
2018-01-05T08:23:53.878Z,76.73
2018-01-05T08:24:58.193Z,76.63
2018-01-05T08:26:02.341Z,77.02
2018-01-05T08:27:06.524Z,76.97
2018-01-05T08:28:10.758Z,76.84
2018-01-05T08:29:15.220Z,76.56
2018-01-05T08:30:19.580Z,76.98
2018-01-05T08:31:23.876Z,76.37
2018-01-05T08:32:29.652Z,76.35
2018-01-05T08:33:33.794Z,76.41
2018-01-05T08:34:38.910Z,76.45
2018-01-05T08:35:42.964Z,76.47
2018-01-05T08:36:47.190Z,76.66
2018-01-05T08:37:51.320Z,76.42
2018-01-05T08:38:55.817Z,76.40
2018-01-05T08:39:59.925Z,76.50
2018-01-05T08:41:04.108Z,75.80
2018-01-05T08:42:08.308Z,76.09
2018-01-05T08:43:12.597Z,76.13
2018-01-05T08:44:16.884Z,76.41
2018-01-05T08:45:21.735Z,76.43
2018-01-05T08:46:26.034Z,76.46
2018-01-05T08:47:30.194Z,76.12
2018-01-05T08:48:34.513Z,76.15
2018-01-05T08:49:39.501Z,76.70
2018-01-05T08:50:43.633Z,76.94
2018-01-05T08:51:48.139Z,76.62
2018-01-05T08:52:52.436Z,76.76
2018-01-05T08:53:56.633Z,76.54
2018-01-05T08:55:00.824Z,76.60
2018-01-05T08:56:05.043Z,76.66
2018-01-05T08:57:09.542Z,76.46
2018-01-05T08:58:14.421Z,76.36
2018-01-05T08:59:18.561Z,76.09
2018-01-05T09:00:28.870Z,76.47
2018-01-05T09:01:33.129Z,76.75
2018-01-05T09:02:38.193Z,76.61
2018-01-05T09:03:42.631Z,76.24
2018-01-05T09:04:46.725Z,76.78
2018-01-05T09:05:51.479Z,76.37
2018-01-05T09:06:55.666Z,76.29
2018-01-05T09:07:59.883Z,76.54
2018-01-05T09:09:04.203Z,76.44
2018-01-05T09:10:09.912Z,75.86
2018-01-05T09:11:14.098Z,76.23
2018-01-05T09:12:18.289Z,77.02
2018-01-05T09:13:22.481Z,76.78
2018-01-05T09:14:26.909Z,77.08
2018-01-05T09:15:31.465Z,77.19
2018-01-05T09:16:39.529Z,77.51
2018-01-05T09:17:43.685Z,77.25
2018-01-05T09:18:47.951Z,77.33
2018-01-05T09:19:52.144Z,77.49
2018-01-05T09:20:56.279Z,77.30
2018-01-05T09:22:00.484Z,77.59
2018-01-05T09:23:05.024Z,77.52
2018-01-05T09:24:09.260Z,77.48
2018-01-05T09:25:13.386Z,77.62
2018-01-05T09:26:17.685Z,77.83
2018-01-05T09:27:21.869Z,77.46
2018-01-05T09:28:26.114Z,77.75
2018-01-05T09:29:30.269Z,77.02
2018-01-05T09:30:35.043Z,77.39
2018-01-05T09:31:40.464Z,77.85
2018-01-05T09:32:45.416Z,77.59
2018-01-05T09:33:49.521Z,77.60
2018-01-05T09:34:54.321Z,77.64
2018-01-05T09:35:58.489Z,78.05
2018-01-05T09:37:02.676Z,78.20
2018-01-05T09:38:06.838Z,78.06
2018-01-05T09:39:11.372Z,78.59
2018-01-05T09:40:15.561Z,78.58
2018-01-05T09:41:19.817Z,78.65
2018-01-05T09:42:24.041Z,78.73
2018-01-05T09:43:28.194Z,78.30
2018-01-05T09:44:32.395Z,78.41
2018-01-05T09:45:37.194Z,78.50
2018-01-05T09:46:41.953Z,79.05
2018-01-05T09:47:46.292Z,78.68
2018-01-05T09:48:52.062Z,79.19
2018-01-05T09:49:57.362Z,78.74
2018-01-05T09:51:02.006Z,78.97
2018-01-05T09:52:06.180Z,78.93
2018-01-05T09:53:10.691Z,78.67
2018-01-05T09:54:17.033Z,78.51
2018-01-05T09:55:21.236Z,78.63
2018-01-05T09:56:25.326Z,78.37
2018-01-05T09:57:29.555Z,78.54
2018-01-05T09:58:34.009Z,78.79
2018-01-05T09:59:39.193Z,78.43
2018-01-05T10:00:43.697Z,78.34
2018-01-05T10:01:48.177Z,78.42
2018-01-05T10:02:53.044Z,78.58
2018-01-05T10:03:57.183Z,78.75
2018-01-05T10:05:01.686Z,79.00
2018-01-05T10:06:05.896Z,78.68
2018-01-05T10:07:10.147Z,78.61
2018-01-05T10:08:14.493Z,78.95
2018-01-05T10:09:18.995Z,78.93
2018-01-05T10:10:23.478Z,78.75
2018-01-05T10:11:28.019Z,78.83
2018-01-05T10:12:32.331Z,78.53
2018-01-05T10:13:36.649Z,78.50
2018-01-05T10:14:41.376Z,78.19
2018-01-05T10:15:46.196Z,78.13
2018-01-05T10:16:50.967Z,78.61
2018-01-05T10:17:56.522Z,78.47
2018-01-05T10:19:00.665Z,78.36
2018-01-05T10:20:04.857Z,79.24
2018-01-05T10:21:09.227Z,78.56
2018-01-05T10:22:25.690Z,78.00
2018-01-05T10:23:29.963Z,78.27
2018-01-05T10:24:34.139Z,78.46
2018-01-05T10:25:39.782Z,78.29
2018-01-05T10:26:44.002Z,78.10
2018-01-05T10:27:48.244Z,77.96
2018-01-05T10:28:53.022Z,78.04
2018-01-05T10:29:57.457Z,78.36
2018-01-05T10:31:01.989Z,78.34
2018-01-05T10:32:06.174Z,78.21
2018-01-05T10:33:11.453Z,77.96
2018-01-05T10:34:15.714Z,77.83
2018-01-05T10:35:20.309Z,78.42
2018-01-05T10:36:24.485Z,78.20
2018-01-05T10:37:28.729Z,78.16
2018-01-05T10:38:33.018Z,78.18
2018-01-05T10:39:37.210Z,77.75
2018-01-05T10:40:42.312Z,78.14
2018-01-05T10:41:46.445Z,78.41
2018-01-05T10:42:50.700Z,78.43
2018-01-05T10:43:55.986Z,77.88
2018-01-05T10:45:00.210Z,77.92
2018-01-05T10:46:04.626Z,78.05
2018-01-05T10:47:09.410Z,78.26
2018-01-05T10:48:13.625Z,78.49
2018-01-05T10:49:18.060Z,78.43
2018-01-05T10:50:22.646Z,77.91
2018-01-05T10:51:26.831Z,77.68
2018-01-05T10:52:31.011Z,78.58
2018-01-05T10:53:35.341Z,78.05
2018-01-05T10:54:40.196Z,77.86
2018-01-05T10:55:44.471Z,78.10
2018-01-05T10:56:49.122Z,77.62
2018-01-05T10:57:53.299Z,78.04
2018-01-05T10:58:57.886Z,78.35
2018-01-05T11:00:02.227Z,78.24
2018-01-05T11:01:06.814Z,78.25
2018-01-05T11:02:11.124Z,78.33
2018-01-05T11:03:15.376Z,78.23
2018-01-05T11:04:19.614Z,78.52
2018-01-05T11:05:24.144Z,78.99
2018-01-05T11:06:28.342Z,78.35
2018-01-05T11:07:32.819Z,79.88
2018-01-05T11:08:37.033Z,78.36
2018-01-05T11:09:41.903Z,78.30
2018-01-05T11:10:46.126Z,78.05
2018-01-05T11:11:50.642Z,78.07
2018-01-05T11:12:54.810Z,77.61
2018-01-05T11:13:59.453Z,78.02
2018-01-05T11:15:05.657Z,77.71
2018-01-05T11:16:09.954Z,78.17
2018-01-05T11:17:14.719Z,78.63
2018-01-05T11:18:18.959Z,78.81
2018-01-05T11:19:23.172Z,78.56
2018-01-05T11:20:27.370Z,78.73
2018-01-05T11:21:31.678Z,78.87
2018-01-05T11:22:35.967Z,79.17
2018-01-05T11:23:40.853Z,79.03
2018-01-05T11:24:46.338Z,79.14
2018-01-05T11:25:50.993Z,79.10
2018-01-05T11:26:56.079Z,79.09
2018-01-05T11:28:00.334Z,79.03
2018-01-05T11:29:04.787Z,79.14
2018-01-05T11:30:09.192Z,79.12
2018-01-05T11:31:13.351Z,79.44
2018-01-05T11:32:17.560Z,79.51
2018-01-05T11:33:21.805Z,79.52
2018-01-05T11:34:26.026Z,80.01
2018-01-05T11:35:30.632Z,79.50
2018-01-05T11:36:34.760Z,79.35
2018-01-05T11:37:40.849Z,78.61
2018-01-05T11:38:45.246Z,79.14
2018-01-05T11:39:49.692Z,79.34
2018-01-05T11:40:54.039Z,79.37
2018-01-05T11:41:58.530Z,79.48
2018-01-05T11:43:02.751Z,79.60
2018-01-05T11:44:07.063Z,79.45
2018-01-05T11:45:13.913Z,79.71
2018-01-05T11:46:18.469Z,79.83
2018-01-05T11:47:22.732Z,79.46
2018-01-05T11:48:27.266Z,79.41
2018-01-05T11:49:31.591Z,79.45
2018-01-05T11:50:35.805Z,79.41
2018-01-05T11:51:40.918Z,79.61
2018-01-05T11:52:45.176Z,79.81
2018-01-05T11:53:49.416Z,79.82
2018-01-05T11:54:54.656Z,80.08
2018-01-05T11:55:58.993Z,79.97
2018-01-05T11:57:03.262Z,79.97
2018-01-05T11:58:07.502Z,79.96
2018-01-05T11:59:11.828Z,79.83
2018-01-05T12:00:26.882Z,80.27
2018-01-05T12:01:31.247Z,80.27
2018-01-05T12:02:35.757Z,80.62
2018-01-05T12:03:39.967Z,80.57
2018-01-05T12:04:44.146Z,80.59
2018-01-05T12:05:48.353Z,80.87
2018-01-05T12:06:53.269Z,81.43
2018-01-05T12:07:57.438Z,80.47
2018-01-05T12:09:01.880Z,80.88
2018-01-05T12:10:06.383Z,81.20
2018-01-05T12:11:10.518Z,81.10
2018-01-05T12:12:14.720Z,81.20
2018-01-05T12:13:18.997Z,81.32
2018-01-05T12:14:23.188Z,81.18
2018-01-05T12:15:27.789Z,81.19
2018-01-05T12:16:32.064Z,81.52
2018-01-05T12:17:36.754Z,81.44
2018-01-05T12:18:41.800Z,81.39
2018-01-05T12:19:46.243Z,81.40
2018-01-05T12:20:50.386Z,81.37
2018-01-05T12:21:55.514Z,81.66
2018-01-05T12:22:59.638Z,81.47
2018-01-05T12:24:03.812Z,81.68
2018-01-05T12:25:08.018Z,81.60
2018-01-05T12:26:12.894Z,81.63
2018-01-05T12:27:17.164Z,81.83
2018-01-05T12:28:21.386Z,82.05
2018-01-05T12:29:25.745Z,82.26
2018-01-05T12:30:30.726Z,82.15
2018-01-05T12:31:34.974Z,82.38
2018-01-05T12:32:39.568Z,82.18
2018-01-05T12:33:44.777Z,82.16
2018-01-05T12:34:48.977Z,82.26
2018-01-05T12:35:54.067Z,81.64
2018-01-05T12:36:58.354Z,81.80
2018-01-05T12:38:02.598Z,81.93
2018-01-05T12:39:07.395Z,82.00
2018-01-05T12:40:11.804Z,82.05
2018-01-05T12:41:16.112Z,82.08
2018-01-05T12:42:20.422Z,82.35
2018-01-05T12:43:24.592Z,82.27
2018-01-05T12:44:28.933Z,82.20
2018-01-05T12:45:33.873Z,82.29
2018-01-05T12:46:39.032Z,82.31
2018-01-05T12:47:43.361Z,82.30
2018-01-05T12:48:47.870Z,82.03
2018-01-05T12:49:52.374Z,82.12
2018-01-05T12:50:56.563Z,82.00
2018-01-05T12:52:01.258Z,82.20
2018-01-05T12:53:05.563Z,82.32
2018-01-05T12:54:09.805Z,82.26
2018-01-05T12:55:14.125Z,82.42
2018-01-05T12:56:18.322Z,82.34
2018-01-05T12:57:22.605Z,82.31
2018-01-05T12:58:26.843Z,82.72
2018-01-05T12:59:31.174Z,82.68
2018-01-05T13:00:35.544Z,83.01
2018-01-05T13:01:40.660Z,82.95
2018-01-05T13:02:45.006Z,83.19
2018-01-05T13:03:49.480Z,83.02
2018-01-05T13:04:54.788Z,82.84
2018-01-05T13:05:59.042Z,83.01
2018-01-05T13:07:03.288Z,83.25
2018-01-05T13:08:07.989Z,83.16
2018-01-05T13:09:12.463Z,82.96
2018-01-05T13:10:17.073Z,83.14
2018-01-05T13:11:21.324Z,83.31
2018-01-05T13:12:25.638Z,83.21
2018-01-05T13:13:31.941Z,83.37
2018-01-05T13:14:36.742Z,83.33
2018-01-05T13:15:42.215Z,83.58
2018-01-05T13:16:47.973Z,82.73
2018-01-05T13:17:52.752Z,83.16
2018-01-05T13:18:56.996Z,83.16
2018-01-05T13:20:01.143Z,83.12
2018-01-05T13:21:05.477Z,83.21
2018-01-05T13:22:09.902Z,83.35
2018-01-05T13:23:14.844Z,83.22
2018-01-05T13:24:19.486Z,83.49
2018-01-05T13:25:24.444Z,83.42
2018-01-05T13:26:28.808Z,83.64
2018-01-05T13:27:33.115Z,83.59
2018-01-05T13:28:37.268Z,83.56
2018-01-05T13:29:41.782Z,83.94
2018-01-05T13:30:46.007Z,83.44
2018-01-05T13:31:50.499Z,83.75
2018-01-05T13:32:55.377Z,83.96
2018-01-05T13:33:59.604Z,84.04
2018-01-05T13:35:05.078Z,83.81
2018-01-05T13:36:09.271Z,83.99
2018-01-05T13:37:17.299Z,84.11
2018-01-05T13:38:21.561Z,84.21
2018-01-05T13:39:25.841Z,84.23
2018-01-05T13:40:30.479Z,84.40
2018-01-05T13:41:35.077Z,84.45
2018-01-05T13:42:39.329Z,84.58
2018-01-05T13:43:44.346Z,84.69
2018-01-05T13:44:48.522Z,84.81
2018-01-05T13:45:54.203Z,84.96
2018-01-05T13:46:58.700Z,85.05
2018-01-05T13:48:03.055Z,85.04
2018-01-05T13:49:07.223Z,84.82
2018-01-05T13:50:11.410Z,84.95
2018-01-05T13:51:15.660Z,84.91
2018-01-05T13:52:19.895Z,84.99
2018-01-05T13:53:24.506Z,84.88